sensor_id;sensor_type;location;lat;lon;timestamp;P1;durP1;ratioP1;P2;durP2;ratioP2
81841;SDS011;71284;50.918;7.092;2023-08-12T00:01:22;33.57;;;22.43;;
81841;SDS011;71284;50.918;7.092;2023-08-12T00:03:49;36.87;;;22.20;;
81841;SDS011;71284;50.918;7.092;2023-08-12T00:06:15;26.00;;;21.63;;
81841;SDS011;71284;50.918;7.092;2023-08-12T00:08:42;38.70;;;23.07;;
81841;SDS011;71284;50.918;7.092;2023-08-12T00:11:08;34.20;;;21.70;;
81841;SDS011;71284;50.918;7.092;2023-08-12T00:13:35;41.00;;;24.27;;
81841;SDS011;71284;50.918;7.092;2023-08-12T00:16:02;30.93;;;21.73;;
81841;SDS011;71284;50.918;7.092;2023-08-12T00:18:28;37.37;;;21.87;;
81841;SDS011;71284;50.918;7.092;2023-08-12T00:20:55;27.70;;;20.97;;
81841;SDS011;71284;50.918;7.092;2023-08-12T00:23:21;35.60;;;23.50;;
81841;SDS011;71284;50.918;7.092;2023-08-12T00:25:48;33.40;;;22.67;;
81841;SDS011;71284;50.918;7.092;2023-08-12T00:28:15;39.10;;;26.00;;
81841;SDS011;71284;50.918;7.092;2023-08-12T00:30:41;30.73;;;21.90;;
81841;SDS011;71284;50.918;7.092;2023-08-12T00:33:08;36.03;;;24.53;;
81841;SDS011;71284;50.918;7.092;2023-08-12T00:35:34;28.93;;;21.83;;
81841;SDS011;71284;50.918;7.092;2023-08-12T00:38:01;30.63;;;21.23;;
81841;SDS011;71284;50.918;7.092;2023-08-12T00:40:28;32.40;;;21.83;;
81841;SDS011;71284;50.918;7.092;2023-08-12T00:42:55;27.33;;;19.83;;
81841;SDS011;71284;50.918;7.092;2023-08-12T00:45:21;34.60;;;23.13;;
81841;SDS011;71284;50.918;7.092;2023-08-12T00:47:47;35.90;;;23.20;;
81841;SDS011;71284;50.918;7.092;2023-08-12T00:50:14;30.70;;;20.90;;
81841;SDS011;71284;50.918;7.092;2023-08-12T00:52:41;29.40;;;23.60;;
81841;SDS011;71284;50.918;7.092;2023-08-12T00:55:07;34.00;;;23.97;;
81841;SDS011;71284;50.918;7.092;2023-08-12T00:57:34;35.50;;;25.17;;
81841;SDS011;71284;50.918;7.092;2023-08-12T01:00:02;32.73;;;20.87;;
81841;SDS011;71284;50.918;7.092;2023-08-12T01:02:27;32.50;;;24.17;;
81841;SDS011;71284;50.918;7.092;2023-08-12T01:04:54;34.83;;;24.03;;
81841;SDS011;71284;50.918;7.092;2023-08-12T01:07:20;37.87;;;23.00;;
81841;SDS011;71284;50.918;7.092;2023-08-12T01:09:47;31.73;;;21.33;;
81841;SDS011;71284;50.918;7.092;2023-08-12T01:12:18;27.20;;;20.20;;
81841;SDS011;71284;50.918;7.092;2023-08-12T01:14:46;26.70;;;20.00;;
81841;SDS011;71284;50.918;7.092;2023-08-12T01:17:12;39.90;;;19.93;;
81841;SDS011;71284;50.918;7.092;2023-08-12T01:19:39;36.93;;;17.83;;
81841;SDS011;71284;50.918;7.092;2023-08-12T01:22:06;23.57;;;18.30;;
81841;SDS011;71284;50.918;7.092;2023-08-12T01:24:34;19.33;;;16.10;;
81841;SDS011;71284;50.918;7.092;2023-08-12T01:27:01;23.20;;;16.90;;
81841;SDS011;71284;50.918;7.092;2023-08-12T01:29:28;19.70;;;14.80;;
81841;SDS011;71284;50.918;7.092;2023-08-12T01:31:58;24.33;;;17.30;;
81841;SDS011;71284;50.918;7.092;2023-08-12T01:37:05;18.50;;;14.80;;
81841;SDS011;71284;50.918;7.092;2023-08-12T01:39:32;21.93;;;14.90;;
81841;SDS011;71284;50.918;7.092;2023-08-12T01:41:58;19.90;;;15.63;;
81841;SDS011;71284;50.918;7.092;2023-08-12T01:44:25;22.90;;;17.10;;
81841;SDS011;71284;50.918;7.092;2023-08-12T01:46:52;24.63;;;15.57;;
81841;SDS011;71284;50.918;7.092;2023-08-12T01:49:18;25.33;;;13.73;;
81841;SDS011;71284;50.918;7.092;2023-08-12T01:51:45;21.40;;;14.63;;
81841;SDS011;71284;50.918;7.092;2023-08-12T01:54:11;23.17;;;16.30;;
81841;SDS011;71284;50.918;7.092;2023-08-12T01:56:38;19.13;;;13.80;;
81841;SDS011;71284;50.918;7.092;2023-08-12T01:59:05;18.17;;;14.43;;
81841;SDS011;71284;50.918;7.092;2023-08-12T02:01:31;14.00;;;12.60;;
81841;SDS011;71284;50.918;7.092;2023-08-12T02:03:58;25.90;;;14.03;;
81841;SDS011;71284;50.918;7.092;2023-08-12T02:06:24;21.23;;;13.30;;
81841;SDS011;71284;50.918;7.092;2023-08-12T02:08:51;20.27;;;13.10;;
81841;SDS011;71284;50.918;7.092;2023-08-12T02:11:17;15.13;;;10.13;;
81841;SDS011;71284;50.918;7.092;2023-08-12T02:13:44;13.40;;;11.30;;
81841;SDS011;71284;50.918;7.092;2023-08-12T02:16:11;17.77;;;11.70;;
81841;SDS011;71284;50.918;7.092;2023-08-12T02:18:37;20.77;;;11.43;;
81841;SDS011;71284;50.918;7.092;2023-08-12T02:21:04;16.13;;;10.20;;
81841;SDS011;71284;50.918;7.092;2023-08-12T02:23:30;11.30;;;10.10;;
81841;SDS011;71284;50.918;7.092;2023-08-12T02:25:57;12.07;;;10.80;;
81841;SDS011;71284;50.918;7.092;2023-08-12T02:28:24;11.43;;;10.10;;
81841;SDS011;71284;50.918;7.092;2023-08-12T02:30:50;13.37;;;11.17;;
81841;SDS011;71284;50.918;7.092;2023-08-12T02:33:17;14.30;;;11.50;;
81841;SDS011;71284;50.918;7.092;2023-08-12T02:35:43;12.00;;;10.40;;
81841;SDS011;71284;50.918;7.092;2023-08-12T02:38:10;13.97;;;11.60;;
81841;SDS011;71284;50.918;7.092;2023-08-12T02:40:37;11.33;;;10.33;;
81841;SDS011;71284;50.918;7.092;2023-08-12T02:43:03;14.50;;;10.43;;
81841;SDS011;71284;50.918;7.092;2023-08-12T02:45:30;16.63;;;11.30;;
81841;SDS011;71284;50.918;7.092;2023-08-12T02:47:56;13.57;;;10.70;;
81841;SDS011;71284;50.918;7.092;2023-08-12T02:50:23;16.30;;;10.70;;
81841;SDS011;71284;50.918;7.092;2023-08-12T02:52:50;18.60;;;10.60;;
81841;SDS011;71284;50.918;7.092;2023-08-12T02:55:16;15.43;;;11.37;;
81841;SDS011;71284;50.918;7.092;2023-08-12T02:57:43;24.67;;;11.83;;
81841;SDS011;71284;50.918;7.092;2023-08-12T03:00:10;15.20;;;11.20;;
81841;SDS011;71284;50.918;7.092;2023-08-12T03:02:37;15.47;;;11.83;;
81841;SDS011;71284;50.918;7.092;2023-08-12T03:05:04;13.93;;;11.40;;
81841;SDS011;71284;50.918;7.092;2023-08-12T03:07:31;11.67;;;10.47;;
81841;SDS011;71284;50.918;7.092;2023-08-12T03:09:58;15.50;;;11.40;;
81841;SDS011;71284;50.918;7.092;2023-08-12T03:12:24;11.63;;;10.03;;
81841;SDS011;71284;50.918;7.092;2023-08-12T03:14:51;13.80;;;11.77;;
81841;SDS011;71284;50.918;7.092;2023-08-12T03:17:17;20.33;;;11.77;;
81841;SDS011;71284;50.918;7.092;2023-08-12T03:19:44;21.83;;;11.00;;
81841;SDS011;71284;50.918;7.092;2023-08-12T03:22:10;14.50;;;10.90;;
81841;SDS011;71284;50.918;7.092;2023-08-12T03:24:37;17.53;;;11.27;;
81841;SDS011;71284;50.918;7.092;2023-08-12T03:27:04;12.13;;;10.13;;
81841;SDS011;71284;50.918;7.092;2023-08-12T03:29:30;14.50;;;12.57;;
81841;SDS011;71284;50.918;7.092;2023-08-12T03:31:57;14.40;;;11.10;;
81841;SDS011;71284;50.918;7.092;2023-08-12T03:34:23;11.73;;;10.53;;
81841;SDS011;71284;50.918;7.092;2023-08-12T03:36:50;13.53;;;9.70;;
81841;SDS011;71284;50.918;7.092;2023-08-12T03:39:17;15.47;;;9.40;;
81841;SDS011;71284;50.918;7.092;2023-08-12T03:41:43;11.27;;;9.70;;
81841;SDS011;71284;50.918;7.092;2023-08-12T03:44:10;10.87;;;9.00;;
81841;SDS011;71284;50.918;7.092;2023-08-12T03:46:36;17.47;;;10.00;;
81841;SDS011;71284;50.918;7.092;2023-08-12T03:49:03;11.43;;;10.10;;
81841;SDS011;71284;50.918;7.092;2023-08-12T03:51:30;13.17;;;9.47;;
81841;SDS011;71284;50.918;7.092;2023-08-12T03:53:57;15.63;;;10.20;;
81841;SDS011;71284;50.918;7.092;2023-08-12T03:56:23;11.23;;;9.40;;
81841;SDS011;71284;50.918;7.092;2023-08-12T03:58:49;16.37;;;10.13;;
81841;SDS011;71284;50.918;7.092;2023-08-12T04:01:16;13.97;;;10.67;;
81841;SDS011;71284;50.918;7.092;2023-08-12T04:03:43;12.43;;;9.83;;
81841;SDS011;71284;50.918;7.092;2023-08-12T04:06:09;11.83;;;10.30;;
81841;SDS011;71284;50.918;7.092;2023-08-12T04:08:36;10.83;;;9.83;;
81841;SDS011;71284;50.918;7.092;2023-08-12T04:11:02;11.13;;;9.53;;
81841;SDS011;71284;50.918;7.092;2023-08-12T04:13:29;10.53;;;9.07;;
81841;SDS011;71284;50.918;7.092;2023-08-12T04:15:56;16.93;;;8.87;;
81841;SDS011;71284;50.918;7.092;2023-08-12T04:18:22;11.37;;;9.33;;
81841;SDS011;71284;50.918;7.092;2023-08-12T04:20:49;17.40;;;9.10;;
81841;SDS011;71284;50.918;7.092;2023-08-12T04:23:15;13.30;;;10.03;;
81841;SDS011;71284;50.918;7.092;2023-08-12T04:25:43;15.70;;;10.10;;
81841;SDS011;71284;50.918;7.092;2023-08-12T04:28:09;15.97;;;10.00;;
81841;SDS011;71284;50.918;7.092;2023-08-12T04:30:39;13.37;;;9.77;;
81841;SDS011;71284;50.918;7.092;2023-08-12T04:33:03;10.83;;;9.83;;
81841;SDS011;71284;50.918;7.092;2023-08-12T04:35:31;14.17;;;11.57;;
81841;SDS011;71284;50.918;7.092;2023-08-12T04:37:56;19.60;;;11.13;;
81841;SDS011;71284;50.918;7.092;2023-08-12T04:40:23;16.40;;;10.27;;
81841;SDS011;71284;50.918;7.092;2023-08-12T04:42:49;18.47;;;9.77;;
81841;SDS011;71284;50.918;7.092;2023-08-12T04:45:16;10.20;;;9.20;;
81841;SDS011;71284;50.918;7.092;2023-08-12T04:47:42;19.07;;;10.13;;
81841;SDS011;71284;50.918;7.092;2023-08-12T04:50:09;15.27;;;11.00;;
81841;SDS011;71284;50.918;7.092;2023-08-12T04:52:35;12.93;;;11.53;;
81841;SDS011;71284;50.918;7.092;2023-08-12T04:55:02;15.93;;;9.30;;
81841;SDS011;71284;50.918;7.092;2023-08-12T04:57:29;12.57;;;8.90;;
81841;SDS011;71284;50.918;7.092;2023-08-12T04:59:56;18.53;;;9.90;;
81841;SDS011;71284;50.918;7.092;2023-08-12T05:02:22;10.80;;;9.80;;
81841;SDS011;71284;50.918;7.092;2023-08-12T05:04:49;12.07;;;8.30;;
81841;SDS011;71284;50.918;7.092;2023-08-12T05:07:15;10.00;;;8.60;;
81841;SDS011;71284;50.918;7.092;2023-08-12T05:09:42;12.67;;;9.80;;
81841;SDS011;71284;50.918;7.092;2023-08-12T05:12:11;11.00;;;9.37;;
81841;SDS011;71284;50.918;7.092;2023-08-12T05:14:38;14.87;;;9.97;;
81841;SDS011;71284;50.918;7.092;2023-08-12T05:17:04;10.63;;;9.60;;
81841;SDS011;71284;50.918;7.092;2023-08-12T05:19:30;10.33;;;7.73;;
81841;SDS011;71284;50.918;7.092;2023-08-12T05:21:57;11.27;;;9.27;;
81841;SDS011;71284;50.918;7.092;2023-08-12T05:24:23;14.73;;;8.10;;
81841;SDS011;71284;50.918;7.092;2023-08-12T05:26:50;15.53;;;8.63;;
81841;SDS011;71284;50.918;7.092;2023-08-12T05:29:16;10.97;;;7.20;;
81841;SDS011;71284;50.918;7.092;2023-08-12T05:31:43;10.07;;;7.60;;
81841;SDS011;71284;50.918;7.092;2023-08-12T05:34:10;9.87;;;7.63;;
81841;SDS011;71284;50.918;7.092;2023-08-12T05:36:36;8.37;;;7.53;;
81841;SDS011;71284;50.918;7.092;2023-08-12T05:39:03;10.23;;;7.30;;
81841;SDS011;71284;50.918;7.092;2023-08-12T05:41:30;13.93;;;8.07;;
81841;SDS011;71284;50.918;7.092;2023-08-12T05:43:56;9.10;;;7.23;;
81841;SDS011;71284;50.918;7.092;2023-08-12T05:46:23;8.33;;;7.60;;
81841;SDS011;71284;50.918;7.092;2023-08-12T05:48:49;8.63;;;6.90;;
81841;SDS011;71284;50.918;7.092;2023-08-12T05:51:16;13.07;;;7.57;;
81841;SDS011;71284;50.918;7.092;2023-08-12T05:53:43;7.17;;;6.40;;
81841;SDS011;71284;50.918;7.092;2023-08-12T05:56:09;6.47;;;5.87;;
81841;SDS011;71284;50.918;7.092;2023-08-12T05:58:36;8.17;;;6.80;;
81841;SDS011;71284;50.918;7.092;2023-08-12T06:01:02;6.30;;;5.37;;
81841;SDS011;71284;50.918;7.092;2023-08-12T06:03:29;6.23;;;5.73;;
81841;SDS011;71284;50.918;7.092;2023-08-12T06:05:56;7.13;;;5.90;;
81841;SDS011;71284;50.918;7.092;2023-08-12T06:08:22;6.90;;;6.20;;
81841;SDS011;71284;50.918;7.092;2023-08-12T06:10:49;9.80;;;7.53;;
81841;SDS011;71284;50.918;7.092;2023-08-12T06:13:15;19.23;;;8.60;;
81841;SDS011;71284;50.918;7.092;2023-08-12T06:15:43;9.10;;;8.20;;
81841;SDS011;71284;50.918;7.092;2023-08-12T06:18:09;11.33;;;8.20;;
81841;SDS011;71284;50.918;7.092;2023-08-12T06:20:36;11.73;;;9.23;;
81841;SDS011;71284;50.918;7.092;2023-08-12T06:23:03;9.87;;;8.83;;
81841;SDS011;71284;50.918;7.092;2023-08-12T06:25:29;11.90;;;7.30;;
81841;SDS011;71284;50.918;7.092;2023-08-12T06:27:56;10.10;;;7.37;;
81841;SDS011;71284;50.918;7.092;2023-08-12T06:30:23;8.80;;;7.27;;
81841;SDS011;71284;50.918;7.092;2023-08-12T06:32:50;6.90;;;6.30;;
81841;SDS011;71284;50.918;7.092;2023-08-12T06:35:17;7.90;;;7.03;;
81841;SDS011;71284;50.918;7.092;2023-08-12T06:37:43;7.50;;;5.87;;
81841;SDS011;71284;50.918;7.092;2023-08-12T06:40:10;7.33;;;6.07;;
81841;SDS011;71284;50.918;7.092;2023-08-12T06:42:36;13.27;;;6.40;;
81841;SDS011;71284;50.918;7.092;2023-08-12T06:45:03;7.07;;;6.47;;
81841;SDS011;71284;50.918;7.092;2023-08-12T06:47:30;7.90;;;7.13;;
81841;SDS011;71284;50.918;7.092;2023-08-12T06:49:57;7.67;;;6.87;;
81841;SDS011;71284;50.918;7.092;2023-08-12T06:52:23;8.70;;;5.80;;
81841;SDS011;71284;50.918;7.092;2023-08-12T06:54:50;8.30;;;6.97;;
81841;SDS011;71284;50.918;7.092;2023-08-12T06:57:16;6.33;;;5.73;;
81841;SDS011;71284;50.918;7.092;2023-08-12T06:59:43;7.63;;;5.60;;
81841;SDS011;71284;50.918;7.092;2023-08-12T07:02:10;6.20;;;5.70;;
81841;SDS011;71284;50.918;7.092;2023-08-12T07:04:36;9.67;;;7.27;;
81841;SDS011;71284;50.918;7.092;2023-08-12T07:07:03;8.70;;;6.97;;
81841;SDS011;71284;50.918;7.092;2023-08-12T07:09:29;9.50;;;6.47;;
81841;SDS011;71284;50.918;7.092;2023-08-12T07:11:56;9.80;;;6.33;;
81841;SDS011;71284;50.918;7.092;2023-08-12T07:14:23;7.60;;;6.30;;
81841;SDS011;71284;50.918;7.092;2023-08-12T07:16:49;6.83;;;6.07;;
81841;SDS011;71284;50.918;7.092;2023-08-12T07:19:16;7.80;;;4.43;;
81841;SDS011;71284;50.918;7.092;2023-08-12T07:21:42;5.00;;;4.60;;
81841;SDS011;71284;50.918;7.092;2023-08-12T07:24:10;5.67;;;5.00;;
81841;SDS011;71284;50.918;7.092;2023-08-12T07:26:36;7.13;;;4.93;;
81841;SDS011;71284;50.918;7.092;2023-08-12T07:29:03;5.37;;;4.87;;
81841;SDS011;71284;50.918;7.092;2023-08-12T07:31:30;5.20;;;4.80;;
81841;SDS011;71284;50.918;7.092;2023-08-12T07:33:56;5.40;;;4.57;;
81841;SDS011;71284;50.918;7.092;2023-08-12T07:36:23;4.73;;;4.33;;
81841;SDS011;71284;50.918;7.092;2023-08-12T07:38:50;5.20;;;3.97;;
81841;SDS011;71284;50.918;7.092;2023-08-12T07:41:16;6.73;;;5.17;;
81841;SDS011;71284;50.918;7.092;2023-08-12T07:43:43;3.97;;;3.70;;
81841;SDS011;71284;50.918;7.092;2023-08-12T07:46:09;7.43;;;4.03;;
81841;SDS011;71284;50.918;7.092;2023-08-12T07:48:36;5.00;;;3.73;;
81841;SDS011;71284;50.918;7.092;2023-08-12T07:51:03;3.73;;;3.20;;
81841;SDS011;71284;50.918;7.092;2023-08-12T07:53:30;4.20;;;3.37;;
81841;SDS011;71284;50.918;7.092;2023-08-12T07:55:56;3.97;;;3.60;;
81841;SDS011;71284;50.918;7.092;2023-08-12T07:58:23;3.30;;;3.17;;
81841;SDS011;71284;50.918;7.092;2023-08-12T08:00:52;4.50;;;3.30;;
81841;SDS011;71284;50.918;7.092;2023-08-12T08:03:16;5.27;;;3.33;;
81841;SDS011;71284;50.918;7.092;2023-08-12T08:05:43;3.50;;;3.30;;
81841;SDS011;71284;50.918;7.092;2023-08-12T08:08:09;6.40;;;3.60;;
81841;SDS011;71284;50.918;7.092;2023-08-12T08:10:36;3.33;;;2.77;;
81841;SDS011;71284;50.918;7.092;2023-08-12T08:13:02;3.70;;;3.27;;
81841;SDS011;71284;50.918;7.092;2023-08-12T08:15:29;3.00;;;2.80;;
81841;SDS011;71284;50.918;7.092;2023-08-12T08:17:56;3.00;;;2.80;;
81841;SDS011;71284;50.918;7.092;2023-08-12T08:20:22;3.73;;;3.17;;
81841;SDS011;71284;50.918;7.092;2023-08-12T08:22:49;2.90;;;2.73;;
81841;SDS011;71284;50.918;7.092;2023-08-12T08:25:15;2.93;;;2.60;;
81841;SDS011;71284;50.918;7.092;2023-08-12T08:27:42;2.67;;;2.37;;
81841;SDS011;71284;50.918;7.092;2023-08-12T08:30:09;3.53;;;2.80;;
81841;SDS011;71284;50.918;7.092;2023-08-12T08:32:36;9.63;;;2.40;;
81841;SDS011;71284;50.918;7.092;2023-08-12T08:35:03;2.33;;;2.13;;
81841;SDS011;71284;50.918;7.092;2023-08-12T08:37:30;2.60;;;2.20;;
81841;SDS011;71284;50.918;7.092;2023-08-12T08:39:56;2.63;;;2.43;;
81841;SDS011;71284;50.918;7.092;2023-08-12T08:42:23;2.03;;;1.93;;
81841;SDS011;71284;50.918;7.092;2023-08-12T08:44:50;3.10;;;2.47;;
81841;SDS011;71284;50.918;7.092;2023-08-12T08:47:16;9.03;;;3.90;;
81841;SDS011;71284;50.918;7.092;2023-08-12T08:49:42;2.47;;;2.27;;
81841;SDS011;71284;50.918;7.092;2023-08-12T08:52:09;2.43;;;2.23;;
81841;SDS011;71284;50.918;7.092;2023-08-12T08:54:36;5.67;;;2.50;;
81841;SDS011;71284;50.918;7.092;2023-08-12T08:57:02;2.80;;;2.50;;
81841;SDS011;71284;50.918;7.092;2023-08-12T08:59:29;3.40;;;3.10;;
81841;SDS011;71284;50.918;7.092;2023-08-12T09:01:56;2.73;;;2.47;;
81841;SDS011;71284;50.918;7.092;2023-08-12T09:04:22;7.80;;;2.30;;
81841;SDS011;71284;50.918;7.092;2023-08-12T09:06:49;2.23;;;2.13;;
81841;SDS011;71284;50.918;7.092;2023-08-12T09:09:16;5.40;;;2.53;;
81841;SDS011;71284;50.918;7.092;2023-08-12T09:11:42;5.03;;;2.20;;
81841;SDS011;71284;50.918;7.092;2023-08-12T09:14:09;3.07;;;2.77;;
81841;SDS011;71284;50.918;7.092;2023-08-12T09:16:35;3.90;;;2.30;;
81841;SDS011;71284;50.918;7.092;2023-08-12T09:19:02;4.57;;;2.80;;
81841;SDS011;71284;50.918;7.092;2023-08-12T09:21:29;4.00;;;2.60;;
81841;SDS011;71284;50.918;7.092;2023-08-12T09:23:55;5.10;;;2.17;;
81841;SDS011;71284;50.918;7.092;2023-08-12T09:26:22;3.57;;;2.20;;
81841;SDS011;71284;50.918;7.092;2023-08-12T09:28:48;2.43;;;1.90;;
81841;SDS011;71284;50.918;7.092;2023-08-12T09:31:22;6.53;;;2.20;;
81841;SDS011;71284;50.918;7.092;2023-08-12T09:33:47;4.13;;;2.73;;
81841;SDS011;71284;50.918;7.092;2023-08-12T09:36:15;1.87;;;1.77;;
81841;SDS011;71284;50.918;7.092;2023-08-12T09:38:41;3.93;;;1.97;;
81841;SDS011;71284;50.918;7.092;2023-08-12T09:41:07;2.73;;;2.57;;
81841;SDS011;71284;50.918;7.092;2023-08-12T09:43:34;1.83;;;1.40;;
81841;SDS011;71284;50.918;7.092;2023-08-12T09:46:00;2.30;;;2.20;;
81841;SDS011;71284;50.918;7.092;2023-08-12T09:48:27;2.33;;;2.07;;
81841;SDS011;71284;50.918;7.092;2023-08-12T09:50:54;4.67;;;1.93;;
81841;SDS011;71284;50.918;7.092;2023-08-12T09:53:22;1.67;;;1.53;;
81841;SDS011;71284;50.918;7.092;2023-08-12T09:55:47;3.40;;;2.20;;
81841;SDS011;71284;50.918;7.092;2023-08-12T09:58:13;3.70;;;1.47;;
81841;SDS011;71284;50.918;7.092;2023-08-12T10:00:40;2.67;;;2.10;;
81841;SDS011;71284;50.918;7.092;2023-08-12T10:03:06;7.27;;;1.97;;
81841;SDS011;71284;50.918;7.092;2023-08-12T10:05:33;4.10;;;1.90;;
81841;SDS011;71284;50.918;7.092;2023-08-12T10:08:00;2.33;;;1.73;;
81841;SDS011;71284;50.918;7.092;2023-08-12T10:10:26;2.20;;;2.00;;
81841;SDS011;71284;50.918;7.092;2023-08-12T10:12:53;2.70;;;1.97;;
81841;SDS011;71284;50.918;7.092;2023-08-12T10:15:20;3.20;;;2.90;;
81841;SDS011;71284;50.918;7.092;2023-08-12T10:17:46;2.60;;;1.90;;
81841;SDS011;71284;50.918;7.092;2023-08-12T10:20:14;2.03;;;1.90;;
81841;SDS011;71284;50.918;7.092;2023-08-12T10:22:40;4.00;;;2.37;;
81841;SDS011;71284;50.918;7.092;2023-08-12T10:25:07;2.13;;;1.70;;
81841;SDS011;71284;50.918;7.092;2023-08-12T10:27:33;2.40;;;2.30;;
81841;SDS011;71284;50.918;7.092;2023-08-12T10:30:02;3.00;;;2.00;;
81841;SDS011;71284;50.918;7.092;2023-08-12T10:32:28;1.10;;;1.10;;
81841;SDS011;71284;50.918;7.092;2023-08-12T10:34:55;2.30;;;2.10;;
81841;SDS011;71284;50.918;7.092;2023-08-12T10:37:24;1.93;;;1.83;;
81841;SDS011;71284;50.918;7.092;2023-08-12T10:39:52;2.80;;;2.60;;
81841;SDS011;71284;50.918;7.092;2023-08-12T10:44:57;9.03;;;1.90;;
81841;SDS011;71284;50.918;7.092;2023-08-12T10:47:23;4.47;;;2.97;;
81841;SDS011;71284;50.918;7.092;2023-08-12T10:49:50;5.90;;;2.43;;
81841;SDS011;71284;50.918;7.092;2023-08-12T10:52:28;2.60;;;2.40;;
81841;SDS011;71284;50.918;7.092;2023-08-12T10:55:04;8.43;;;2.53;;
81841;SDS011;71284;50.918;7.092;2023-08-12T11:00:00;3.33;;;3.03;;
81841;SDS011;71284;50.918;7.092;2023-08-12T11:05:02;2.87;;;2.50;;
81841;SDS011;71284;50.918;7.092;2023-08-12T11:07:33;2.30;;;2.17;;
81841;SDS011;71284;50.918;7.092;2023-08-12T11:10:03;2.90;;;2.67;;
81841;SDS011;71284;50.918;7.092;2023-08-12T11:12:42;3.00;;;2.77;;
81841;SDS011;71284;50.918;7.092;2023-08-12T11:15:08;2.20;;;2.10;;
81841;SDS011;71284;50.918;7.092;2023-08-12T11:17:35;6.73;;;2.57;;
81841;SDS011;71284;50.918;7.092;2023-08-12T11:20:03;9.40;;;2.10;;
81841;SDS011;71284;50.918;7.092;2023-08-12T11:22:30;5.23;;;2.53;;
81841;SDS011;71284;50.918;7.092;2023-08-12T11:24:56;4.70;;;2.90;;
81841;SDS011;71284;50.918;7.092;2023-08-12T11:27:23;2.00;;;1.90;;
81841;SDS011;71284;50.918;7.092;2023-08-12T11:29:49;4.43;;;2.27;;
81841;SDS011;71284;50.918;7.092;2023-08-12T11:32:16;5.63;;;2.10;;
81841;SDS011;71284;50.918;7.092;2023-08-12T11:34:43;2.30;;;2.20;;
81841;SDS011;71284;50.918;7.092;2023-08-12T11:37:09;2.43;;;2.33;;
81841;SDS011;71284;50.918;7.092;2023-08-12T11:39:36;2.23;;;2.03;;
81841;SDS011;71284;50.918;7.092;2023-08-12T11:42:02;2.30;;;2.07;;
81841;SDS011;71284;50.918;7.092;2023-08-12T11:44:29;2.30;;;1.97;;
81841;SDS011;71284;50.918;7.092;2023-08-12T11:46:56;4.17;;;2.30;;
81841;SDS011;71284;50.918;7.092;2023-08-12T11:49:22;2.57;;;1.73;;
81841;SDS011;71284;50.918;7.092;2023-08-12T11:51:49;2.43;;;2.30;;
81841;SDS011;71284;50.918;7.092;2023-08-12T11:54:15;2.60;;;2.33;;
81841;SDS011;71284;50.918;7.092;2023-08-12T11:56:42;2.60;;;2.07;;
81841;SDS011;71284;50.918;7.092;2023-08-12T11:59:09;1.83;;;1.73;;
81841;SDS011;71284;50.918;7.092;2023-08-12T12:01:35;6.87;;;2.07;;
81841;SDS011;71284;50.918;7.092;2023-08-12T12:04:02;2.00;;;1.90;;
81841;SDS011;71284;50.918;7.092;2023-08-12T12:06:31;2.13;;;1.90;;
81841;SDS011;71284;50.918;7.092;2023-08-12T12:09:00;2.40;;;1.90;;
81841;SDS011;71284;50.918;7.092;2023-08-12T12:11:26;2.03;;;1.93;;
81841;SDS011;71284;50.918;7.092;2023-08-12T12:13:53;4.20;;;2.57;;
81841;SDS011;71284;50.918;7.092;2023-08-12T12:16:19;2.03;;;1.77;;
81841;SDS011;71284;50.918;7.092;2023-08-12T12:18:46;1.47;;;1.33;;
81841;SDS011;71284;50.918;7.092;2023-08-12T12:21:19;2.57;;;2.37;;
81841;SDS011;71284;50.918;7.092;2023-08-12T12:23:39;5.40;;;1.63;;
81841;SDS011;71284;50.918;7.092;2023-08-12T12:26:06;4.73;;;2.10;;
81841;SDS011;71284;50.918;7.092;2023-08-12T12:28:32;3.20;;;2.23;;
81841;SDS011;71284;50.918;7.092;2023-08-12T12:30:59;2.77;;;2.57;;
81841;SDS011;71284;50.918;7.092;2023-08-12T12:33:25;2.27;;;1.97;;
81841;SDS011;71284;50.918;7.092;2023-08-12T12:35:52;1.53;;;1.43;;
81841;SDS011;71284;50.918;7.092;2023-08-12T12:38:19;1.90;;;1.50;;
81841;SDS011;71284;50.918;7.092;2023-08-12T12:40:45;1.20;;;1.10;;
81841;SDS011;71284;50.918;7.092;2023-08-12T12:43:12;3.40;;;1.07;;
81841;SDS011;71284;50.918;7.092;2023-08-12T12:45:38;4.40;;;1.40;;
81841;SDS011;71284;50.918;7.092;2023-08-12T12:48:05;1.00;;;1.00;;
81841;SDS011;71284;50.918;7.092;2023-08-12T12:50:32;0.73;;;0.73;;
81841;SDS011;71284;50.918;7.092;2023-08-12T12:52:58;1.20;;;1.10;;
81841;SDS011;71284;50.918;7.092;2023-08-12T12:55:25;2.80;;;0.90;;
81841;SDS011;71284;50.918;7.092;2023-08-12T12:57:51;1.53;;;0.70;;
81841;SDS011;71284;50.918;7.092;2023-08-12T13:00:18;1.40;;;1.30;;
81841;SDS011;71284;50.918;7.092;2023-08-12T13:02:45;0.73;;;0.73;;
81841;SDS011;71284;50.918;7.092;2023-08-12T13:05:11;0.87;;;0.60;;
81841;SDS011;71284;50.918;7.092;2023-08-12T13:07:38;0.67;;;0.67;;
81841;SDS011;71284;50.918;7.092;2023-08-12T13:10:05;2.90;;;1.07;;
81841;SDS011;71284;50.918;7.092;2023-08-12T13:12:33;1.97;;;0.67;;
81841;SDS011;71284;50.918;7.092;2023-08-12T13:14:59;1.03;;;0.93;;
81841;SDS011;71284;50.918;7.092;2023-08-12T13:17:26;0.90;;;0.73;;
81841;SDS011;71284;50.918;7.092;2023-08-12T13:19:52;0.57;;;0.57;;
81841;SDS011;71284;50.918;7.092;2023-08-12T13:22:19;1.20;;;1.10;;
81841;SDS011;71284;50.918;7.092;2023-08-12T13:24:46;0.73;;;0.47;;
81841;SDS011;71284;50.918;7.092;2023-08-12T13:27:12;2.20;;;0.60;;
81841;SDS011;71284;50.918;7.092;2023-08-12T13:29:39;0.70;;;0.50;;
81841;SDS011;71284;50.918;7.092;2023-08-12T13:32:05;0.50;;;0.50;;
81841;SDS011;71284;50.918;7.092;2023-08-12T13:34:32;0.50;;;0.50;;
81841;SDS011;71284;50.918;7.092;2023-08-12T13:36:59;0.73;;;0.70;;
81841;SDS011;71284;50.918;7.092;2023-08-12T13:39:25;2.50;;;0.60;;
81841;SDS011;71284;50.918;7.092;2023-08-12T13:41:52;1.00;;;0.57;;
81841;SDS011;71284;50.918;7.092;2023-08-12T13:44:18;0.70;;;0.60;;
81841;SDS011;71284;50.918;7.092;2023-08-12T13:46:45;0.70;;;0.70;;
81841;SDS011;71284;50.918;7.092;2023-08-12T13:49:11;4.03;;;1.80;;
81841;SDS011;71284;50.918;7.092;2023-08-12T13:51:38;0.60;;;0.60;;
81841;SDS011;71284;50.918;7.092;2023-08-12T13:54:05;2.50;;;0.63;;
81841;SDS011;71284;50.918;7.092;2023-08-12T13:56:31;0.40;;;0.40;;
81841;SDS011;71284;50.918;7.092;2023-08-12T13:58:58;1.20;;;0.57;;
81841;SDS011;71284;50.918;7.092;2023-08-12T14:01:24;0.70;;;0.60;;
81841;SDS011;71284;50.918;7.092;2023-08-12T14:03:51;0.87;;;0.80;;
81841;SDS011;71284;50.918;7.092;2023-08-12T14:06:18;1.47;;;0.67;;
81841;SDS011;71284;50.918;7.092;2023-08-12T14:08:46;0.50;;;0.50;;
81841;SDS011;71284;50.918;7.092;2023-08-12T14:11:12;0.60;;;0.50;;
81841;SDS011;71284;50.918;7.092;2023-08-12T14:13:39;0.50;;;0.50;;
81841;SDS011;71284;50.918;7.092;2023-08-12T14:16:06;0.50;;;0.50;;
81841;SDS011;71284;50.918;7.092;2023-08-12T14:18:32;0.80;;;0.40;;
81841;SDS011;71284;50.918;7.092;2023-08-12T14:20:59;0.63;;;0.63;;
81841;SDS011;71284;50.918;7.092;2023-08-12T14:23:25;0.50;;;0.50;;
81841;SDS011;71284;50.918;7.092;2023-08-12T14:25:52;0.53;;;0.47;;
81841;SDS011;71284;50.918;7.092;2023-08-12T14:28:18;0.77;;;0.30;;
81841;SDS011;71284;50.918;7.092;2023-08-12T14:30:45;1.47;;;0.60;;
81841;SDS011;71284;50.918;7.092;2023-08-12T14:33:12;0.60;;;0.60;;
81841;SDS011;71284;50.918;7.092;2023-08-12T14:35:38;0.50;;;0.50;;
81841;SDS011;71284;50.918;7.092;2023-08-12T14:38:05;0.40;;;0.40;;
81841;SDS011;71284;50.918;7.092;2023-08-12T14:40:31;0.50;;;0.50;;
81841;SDS011;71284;50.918;7.092;2023-08-12T14:42:58;1.27;;;0.50;;
81841;SDS011;71284;50.918;7.092;2023-08-12T14:45:25;0.60;;;0.40;;